createdAt,value
2022-08-28T00:01:23.705Z,63.30
2022-08-28T00:03:50.381Z,62.40
2022-08-28T00:06:17.090Z,61.58
2022-08-28T00:08:43.720Z,62.23
2022-08-28T00:11:10.358Z,61.45
2022-08-28T00:13:37.027Z,60.08
2022-08-28T00:16:05.067Z,63.46
2022-08-28T00:18:31.842Z,62.54
2022-08-28T00:20:59.436Z,60.97
2022-08-28T00:23:40.298Z,61.38
2022-08-28T00:26:10.792Z,62.13
2022-08-28T00:28:37.465Z,60.90
2022-08-28T00:31:04.186Z,60.07
2022-08-28T00:33:34.651Z,61.41
2022-08-28T00:36:03.613Z,60.61
2022-08-28T00:38:30.874Z,61.17
2022-08-28T00:41:04.082Z,61.37
2022-08-28T00:43:34.079Z,61.29
2022-08-28T00:46:05.101Z,60.39
2022-08-28T00:48:32.215Z,59.50
2022-08-28T00:51:00.595Z,59.89
2022-08-28T00:53:32.965Z,59.64
2022-08-28T00:56:08.139Z,59.96
2022-08-28T00:58:41.401Z,60.05
2022-08-28T01:01:08.011Z,59.54
2022-08-28T01:03:37.220Z,59.24
2022-08-28T01:06:05.458Z,58.63
2022-08-28T01:08:33.298Z,59.22
2022-08-28T01:11:06.139Z,58.91
2022-08-28T01:13:33.943Z,58.82
2022-08-28T01:16:02.661Z,59.00
2022-08-28T01:18:30.834Z,59.16
2022-08-28T01:21:20.417Z,60.24
2022-08-28T01:23:58.580Z,63.58
2022-08-28T01:26:26.763Z,63.02
2022-08-28T01:29:00.036Z,61.71
2022-08-28T01:31:29.392Z,60.97
2022-08-28T01:33:57.030Z,63.25
2022-08-28T01:36:23.693Z,62.66
2022-08-28T01:38:56.284Z,67.44
2022-08-28T01:41:23.098Z,65.33
2022-08-28T01:43:49.741Z,70.27
2022-08-28T01:46:16.894Z,71.23
2022-08-28T01:48:44.164Z,72.36
2022-08-28T01:51:12.746Z,73.62
2022-08-28T01:53:40.328Z,74.00
2022-08-28T01:56:12.034Z,74.55
2022-08-28T01:58:41.031Z,75.53
2022-08-28T02:01:18.559Z,76.07
2022-08-28T02:03:45.895Z,74.76
2022-08-28T02:06:14.657Z,75.40
2022-08-28T02:08:42.320Z,73.91
2022-08-28T02:11:09.245Z,75.50
2022-08-28T02:13:37.945Z,75.76
2022-08-28T02:16:06.824Z,74.50
2022-08-28T02:18:33.557Z,74.33
2022-08-28T02:21:00.194Z,73.87
2022-08-28T02:23:27.528Z,75.10
2022-08-28T02:25:54.185Z,75.11
2022-08-28T02:28:20.956Z,75.07
2022-08-28T02:30:47.710Z,74.60
2022-08-28T02:33:14.439Z,74.82
2022-08-28T02:35:42.360Z,73.01
2022-08-28T02:38:09.791Z,74.62
2022-08-28T02:40:36.978Z,74.61
2022-08-28T02:43:05.266Z,75.87
2022-08-28T02:45:32.034Z,74.82
2022-08-28T02:47:58.667Z,74.64
2022-08-28T02:50:25.304Z,74.11
2022-08-28T02:52:52.402Z,74.63
2022-08-28T02:55:20.337Z,74.12
2022-08-28T02:57:47.967Z,74.59
2022-08-28T03:00:24.525Z,75.39
2022-08-28T03:02:53.012Z,74.66
2022-08-28T03:05:22.978Z,75.03
2022-08-28T03:07:51.521Z,73.51
2022-08-28T03:10:18.145Z,73.40
2022-08-28T03:12:44.803Z,72.70
2022-08-28T03:15:12.156Z,73.57
2022-08-28T03:17:39.621Z,72.38
2022-08-28T03:20:12.626Z,72.50
2022-08-28T03:22:40.193Z,73.51
2022-08-28T03:25:07.488Z,73.98
2022-08-28T03:27:34.125Z,74.50
2022-08-28T03:30:00.941Z,74.20
2022-08-28T03:32:29.338Z,73.64
2022-08-28T03:34:56.057Z,73.79
2022-08-28T03:37:22.784Z,73.19
2022-08-28T03:39:49.822Z,75.00
2022-08-28T03:42:16.590Z,75.08
2022-08-28T03:44:43.223Z,74.69
2022-08-28T03:47:09.880Z,73.74
2022-08-28T03:49:36.889Z,74.32
2022-08-28T03:52:03.738Z,75.15
2022-08-28T03:54:30.437Z,75.43
2022-08-28T03:56:57.281Z,74.61
2022-08-28T03:59:29.731Z,74.80
2022-08-28T04:02:00.490Z,75.80
2022-08-28T04:04:27.194Z,74.75
2022-08-28T04:06:53.918Z,75.15
2022-08-28T04:09:20.524Z,74.40
2022-08-28T04:11:47.172Z,75.53
2022-08-28T04:14:13.882Z,75.76
2022-08-28T04:16:40.603Z,76.12
2022-08-28T04:19:07.322Z,76.52
2022-08-28T04:21:34.085Z,75.82
2022-08-28T04:24:00.686Z,76.15
2022-08-28T04:26:27.727Z,75.08
2022-08-28T04:28:55.975Z,74.62
2022-08-28T04:31:31.722Z,75.26
2022-08-28T04:34:06.812Z,75.83
2022-08-28T04:36:33.614Z,76.34
2022-08-28T04:39:01.472Z,75.72
2022-08-28T04:41:28.719Z,75.43
2022-08-28T04:43:57.213Z,75.26
2022-08-28T04:46:25.487Z,76.78
2022-08-28T04:48:52.269Z,76.14
2022-08-28T04:51:19.258Z,75.50
2022-08-28T04:53:46.065Z,75.41
2022-08-28T04:56:14.778Z,74.81
2022-08-28T04:58:43.061Z,74.50
2022-08-28T05:01:14.139Z,74.38
2022-08-28T05:03:41.026Z,75.65
2022-08-28T05:06:08.723Z,75.24
2022-08-28T05:08:35.910Z,73.06
2022-08-28T05:11:34.555Z,74.39
2022-08-28T05:14:03.601Z,74.07
2022-08-28T05:16:30.308Z,74.49
2022-08-28T05:19:00.548Z,74.46
2022-08-28T05:21:28.109Z,73.88
2022-08-28T05:23:57.697Z,74.50
2022-08-28T05:26:26.866Z,74.96
2022-08-28T05:28:55.172Z,75.05
2022-08-28T05:31:23.217Z,74.01
2022-08-28T05:33:50.964Z,74.01
2022-08-28T05:36:18.757Z,73.91
2022-08-28T05:38:45.415Z,75.05
2022-08-28T05:41:12.120Z,74.92
2022-08-28T05:43:39.426Z,74.99
2022-08-28T05:46:08.229Z,74.83
2022-08-28T05:48:38.318Z,74.61
2022-08-28T05:51:16.261Z,75.64
2022-08-28T05:53:44.871Z,74.17
2022-08-28T05:56:15.752Z,75.74
2022-08-28T05:58:43.304Z,75.49
2022-08-28T06:01:16.457Z,74.77
2022-08-28T06:03:51.700Z,74.53
2022-08-28T06:06:18.396Z,75.53
2022-08-28T06:08:58.324Z,75.82
2022-08-28T06:11:31.039Z,75.20
2022-08-28T06:14:02.693Z,73.18
2022-08-28T06:16:31.766Z,72.98
2022-08-28T06:19:00.083Z,74.21
2022-08-28T06:21:26.837Z,73.09
2022-08-28T06:23:53.607Z,74.09
2022-08-28T06:26:20.968Z,73.31
2022-08-28T06:28:47.704Z,72.93
2022-08-28T06:31:23.739Z,73.33
2022-08-28T06:33:56.634Z,74.23
2022-08-28T06:36:25.213Z,72.92
2022-08-28T06:38:51.860Z,73.66
2022-08-28T06:41:18.806Z,73.37
2022-08-28T06:43:48.004Z,72.02
2022-08-28T06:46:14.845Z,70.28
2022-08-28T06:48:41.515Z,70.21
2022-08-28T06:51:10.715Z,69.48
2022-08-28T06:53:39.541Z,70.20
2022-08-28T06:56:11.273Z,69.17
2022-08-28T06:58:50.500Z,68.89
2022-08-28T07:01:22.174Z,67.90
2022-08-28T07:03:52.114Z,68.23
2022-08-28T07:06:21.541Z,65.85
2022-08-28T07:08:48.691Z,65.83
2022-08-28T07:11:26.323Z,63.44
2022-08-28T07:13:54.311Z,64.41
2022-08-28T07:16:26.335Z,65.45
2022-08-28T07:18:53.611Z,67.72
2022-08-28T07:21:20.388Z,66.34
2022-08-28T07:23:47.846Z,66.58
2022-08-28T07:26:24.169Z,66.10
2022-08-28T07:29:09.577Z,65.52
2022-08-28T07:31:42.104Z,66.22
2022-08-28T07:34:10.894Z,65.24
2022-08-28T07:36:38.372Z,63.33
2022-08-28T07:39:05.674Z,63.73
2022-08-28T07:41:34.664Z,63.31
2022-08-28T07:44:01.433Z,63.86
2022-08-28T07:46:28.408Z,63.38
2022-08-28T07:48:55.231Z,64.76
2022-08-28T07:51:21.906Z,65.16
2022-08-28T07:53:48.594Z,64.60
2022-08-28T07:56:15.199Z,63.92
2022-08-28T07:58:41.819Z,61.02
2022-08-28T08:01:08.835Z,60.56
2022-08-28T08:03:35.526Z,61.62
2022-08-28T08:06:04.695Z,63.78
2022-08-28T08:08:34.048Z,62.09
2022-08-28T08:11:06.078Z,63.33
2022-08-28T08:13:34.989Z,61.95
2022-08-28T08:16:08.881Z,59.52
2022-08-28T08:18:35.606Z,57.44
2022-08-28T08:21:05.882Z,56.94
2022-08-28T08:23:34.125Z,58.73
2022-08-28T08:26:03.958Z,57.98
2022-08-28T08:28:30.981Z,58.64
2022-08-28T08:31:22.893Z,59.56
2022-08-28T08:33:52.668Z,60.63
2022-08-28T08:36:21.305Z,60.94
2022-08-28T08:38:48.569Z,58.88
2022-08-28T08:41:32.407Z,58.70
2022-08-28T08:44:28.470Z,59.14
2022-08-28T08:47:20.143Z,60.92
2022-08-28T08:49:52.437Z,62.70
2022-08-28T08:52:27.778Z,63.91
2022-08-28T08:55:21.251Z,62.60
2022-08-28T08:57:55.666Z,62.07
2022-08-28T09:00:22.412Z,64.51
2022-08-28T09:06:43.676Z,64.83
2022-08-28T09:09:46.613Z,66.29
2022-08-28T09:12:15.843Z,64.09
2022-08-28T09:15:00.973Z,65.58
2022-08-28T09:17:45.858Z,64.53
2022-08-28T09:20:19.671Z,64.72
2022-08-28T09:22:52.603Z,65.18
2022-08-28T09:25:44.190Z,63.17
2022-08-28T09:28:17.859Z,63.72
2022-08-28T09:30:57.437Z,63.32
2022-08-28T09:33:30.820Z,65.56
2022-08-28T09:35:57.620Z,65.16
2022-08-28T09:38:28.135Z,63.03
2022-08-28T09:41:11.788Z,62.70
2022-08-28T09:43:38.724Z,63.44
2022-08-28T09:46:06.498Z,62.67
2022-08-28T09:48:42.957Z,62.94
2022-08-28T09:51:13.441Z,60.68
2022-08-28T09:54:01.872Z,58.67
2022-08-28T09:56:35.220Z,58.78
2022-08-28T09:59:10.091Z,59.26
2022-08-28T10:01:49.138Z,57.73
2022-08-28T10:04:15.826Z,57.23
2022-08-28T10:06:58.854Z,56.99
2022-08-28T10:09:34.293Z,59.31
2022-08-28T10:12:33.982Z,62.62
2022-08-28T10:15:18.730Z,60.85
2022-08-28T10:18:04.048Z,59.01
2022-08-28T10:20:36.987Z,58.94
2022-08-28T10:23:20.662Z,60.15
2022-08-28T10:26:20.395Z,60.82
2022-08-28T10:28:50.038Z,62.68
2022-08-28T10:31:35.237Z,61.11
2022-08-28T10:34:10.839Z,60.05
2022-08-28T10:36:38.472Z,59.94
2022-08-28T10:39:27.345Z,59.31
2022-08-28T10:42:04.245Z,60.79
2022-08-28T10:44:33.911Z,59.69
2022-08-28T10:47:05.525Z,59.40
2022-08-28T10:49:39.635Z,60.53
2022-08-28T10:52:34.625Z,61.25
2022-08-28T10:55:17.891Z,58.59
2022-08-28T10:57:49.715Z,57.19
2022-08-28T11:00:20.131Z,58.59
2022-08-28T11:02:55.909Z,56.90
2022-08-28T11:05:26.284Z,56.86
2022-08-28T11:08:05.110Z,55.79
2022-08-28T11:10:35.830Z,53.85
2022-08-28T11:13:05.920Z,51.84
2022-08-28T11:15:37.198Z,51.29
2022-08-28T11:18:16.736Z,50.97
2022-08-28T11:21:00.967Z,50.86
2022-08-28T11:23:48.869Z,50.70
2022-08-28T11:26:54.329Z,50.41
2022-08-28T11:29:58.332Z,51.16
2022-08-28T11:32:38.902Z,49.68
2022-08-28T11:35:58.902Z,49.09
2022-08-28T11:38:40.627Z,52.10
2022-08-28T11:41:27.948Z,50.83
2022-08-28T11:44:09.807Z,50.12
2022-08-28T11:46:53.198Z,50.73
2022-08-28T11:49:25.714Z,49.34
2022-08-28T11:52:10.900Z,50.07
2022-08-28T11:54:58.772Z,49.26
2022-08-28T11:57:53.992Z,50.03
2022-08-28T12:00:51.013Z,48.92
2022-08-28T12:03:55.830Z,50.00
2022-08-28T12:06:44.516Z,48.77
2022-08-28T12:09:47.654Z,48.32
2022-08-28T12:12:23.253Z,48.91
2022-08-28T12:15:05.909Z,49.08
2022-08-28T12:17:46.337Z,50.45
2022-08-28T12:20:18.958Z,50.79
2022-08-28T12:22:50.094Z,50.23
2022-08-28T12:25:37.675Z,51.11
2022-08-28T12:28:22.359Z,52.37
2022-08-28T12:31:14.250Z,52.37
2022-08-28T12:34:06.399Z,51.73
2022-08-28T12:36:34.912Z,50.78
2022-08-28T12:39:02.747Z,51.03
2022-08-28T12:41:30.157Z,50.74
2022-08-28T12:44:00.321Z,52.22
2022-08-28T12:46:31.579Z,52.44
2022-08-28T12:49:01.783Z,52.14
2022-08-28T12:51:32.445Z,51.05
2022-08-28T12:54:02.871Z,51.53
2022-08-28T12:56:34.761Z,51.26
2022-08-28T12:59:27.461Z,51.20
2022-08-28T13:02:01.463Z,50.55
2022-08-28T13:04:40.056Z,51.01
2022-08-28T13:07:12.365Z,51.99
2022-08-28T13:09:50.309Z,52.41
2022-08-28T13:12:22.454Z,51.65
2022-08-28T13:15:02.602Z,51.84
2022-08-28T13:17:49.986Z,52.36
2022-08-28T13:20:35.545Z,53.52
2022-08-28T13:23:05.227Z,53.95
2022-08-28T13:25:36.365Z,54.06
2022-08-28T13:28:12.569Z,52.86
2022-08-28T13:30:39.575Z,52.66
2022-08-28T13:33:18.044Z,53.08
2022-08-28T13:35:45.392Z,53.50
2022-08-28T13:38:14.366Z,52.24
2022-08-28T13:43:41.736Z,53.05
2022-08-28T13:46:08.438Z,52.31
2022-08-28T13:48:35.200Z,53.86
2022-08-28T13:51:07.520Z,54.35
2022-08-28T13:53:40.428Z,54.16
2022-08-28T13:56:07.208Z,53.56
2022-08-28T13:58:34.402Z,53.92
2022-08-28T14:01:02.733Z,53.59
2022-08-28T14:03:29.566Z,53.55
2022-08-28T14:05:56.661Z,54.20
2022-08-28T14:08:23.262Z,53.41
2022-08-28T14:10:49.938Z,52.96
2022-08-28T14:13:16.643Z,53.56
2022-08-28T14:15:43.288Z,52.90
2022-08-28T14:18:10.028Z,51.34
2022-08-28T14:20:38.298Z,52.80
2022-08-28T14:23:05.614Z,54.09
2022-08-28T14:25:37.087Z,52.23
2022-08-28T14:28:06.401Z,51.73
2022-08-28T14:30:33.236Z,52.13
2022-08-28T14:32:59.950Z,52.91
2022-08-28T14:35:26.735Z,52.53
2022-08-28T14:37:53.702Z,52.10
2022-08-28T14:40:21.923Z,51.81
2022-08-28T14:42:51.064Z,51.51
2022-08-28T14:45:17.827Z,50.56
2022-08-28T14:47:44.886Z,50.62
2022-08-28T14:50:11.845Z,50.38
2022-08-28T14:52:38.756Z,48.88
2022-08-28T14:55:06.083Z,49.41
2022-08-28T14:57:33.069Z,49.28
2022-08-28T14:59:59.820Z,50.74
2022-08-28T15:02:26.794Z,49.21
2022-08-28T15:04:53.963Z,50.44
2022-08-28T15:07:20.611Z,50.02
2022-08-28T15:09:47.605Z,49.39
2022-08-28T15:12:14.493Z,49.76
2022-08-28T15:14:51.930Z,49.28
2022-08-28T15:17:23.741Z,48.40
2022-08-28T15:20:01.004Z,49.40
2022-08-28T15:22:27.722Z,49.19
2022-08-28T15:24:55.716Z,49.56
2022-08-28T15:27:22.423Z,49.83
2022-08-28T15:29:49.046Z,49.67
2022-08-28T15:32:15.649Z,49.87
2022-08-28T15:34:42.245Z,49.95
2022-08-28T15:37:08.911Z,48.60
2022-08-28T15:39:40.067Z,48.36
2022-08-28T15:42:07.941Z,48.35
2022-08-28T15:44:37.434Z,48.05
2022-08-28T15:47:04.524Z,48.21
2022-08-28T15:49:36.194Z,48.09
2022-08-28T15:52:10.954Z,47.77
2022-08-28T15:54:37.758Z,48.47
2022-08-28T15:57:04.725Z,48.48
2022-08-28T15:59:39.943Z,47.55
2022-08-28T16:02:16.480Z,48.54
2022-08-28T16:04:43.238Z,48.63
2022-08-28T16:07:09.855Z,48.62
2022-08-28T16:09:36.476Z,47.74
2022-08-28T16:12:03.526Z,48.62
2022-08-28T16:14:32.501Z,48.24
2022-08-28T16:16:59.216Z,49.22
2022-08-28T16:19:32.569Z,48.93
2022-08-28T16:21:59.523Z,49.34
2022-08-28T16:24:26.131Z,47.58
2022-08-28T16:26:52.752Z,47.52
2022-08-28T16:29:19.763Z,47.77
2022-08-28T16:31:48.997Z,47.38
2022-08-28T16:34:19.610Z,47.47
2022-08-28T16:36:47.250Z,48.15
2022-08-28T16:39:14.495Z,47.97
2022-08-28T16:41:41.309Z,49.31
2022-08-28T16:44:08.133Z,48.64
2022-08-28T16:46:34.863Z,48.34
2022-08-28T16:49:01.659Z,49.05
2022-08-28T16:51:28.535Z,48.09
2022-08-28T16:53:56.789Z,49.17
2022-08-28T16:56:24.088Z,48.61
2022-08-28T16:58:53.300Z,48.32
2022-08-28T17:01:22.062Z,48.92
2022-08-28T17:03:53.071Z,49.68
2022-08-28T17:06:23.208Z,49.72
2022-08-28T17:08:55.929Z,50.49
2022-08-28T17:11:26.507Z,50.31
2022-08-28T17:13:53.950Z,50.33
2022-08-28T17:16:21.974Z,50.30
2022-08-28T17:18:52.590Z,50.51
2022-08-28T17:21:21.131Z,50.28
2022-08-28T17:23:47.960Z,49.84
2022-08-28T17:26:14.838Z,50.52
2022-08-28T17:28:42.455Z,51.50
2022-08-28T17:31:13.440Z,50.55
2022-08-28T17:33:44.747Z,50.77
2022-08-28T17:36:21.478Z,50.80
2022-08-28T17:39:00.103Z,50.82
2022-08-28T17:41:26.943Z,50.65
2022-08-28T17:43:53.601Z,51.58
2022-08-28T17:46:20.339Z,52.17
2022-08-28T17:48:55.475Z,53.65
2022-08-28T17:51:43.070Z,53.43
2022-08-28T17:54:17.093Z,53.31
2022-08-28T17:56:47.443Z,52.43
2022-08-28T17:59:15.249Z,52.36
2022-08-28T18:01:43.413Z,52.65
2022-08-28T18:04:11.586Z,52.33
2022-08-28T18:06:39.073Z,54.01
2022-08-28T18:09:06.744Z,53.00
2022-08-28T18:11:33.466Z,52.55
2022-08-28T18:14:00.239Z,52.47
2022-08-28T18:16:31.470Z,52.43
2022-08-28T18:18:59.778Z,52.94
2022-08-28T18:21:27.262Z,53.58
2022-08-28T18:23:53.938Z,52.80
2022-08-28T18:26:20.793Z,52.49
2022-08-28T18:28:47.473Z,51.73
2022-08-28T18:31:14.558Z,53.26
2022-08-28T18:33:41.516Z,52.18
2022-08-28T18:36:13.377Z,53.31
2022-08-28T18:38:40.964Z,53.99
2022-08-28T18:41:09.402Z,54.58
2022-08-28T18:43:38.623Z,54.61
2022-08-28T18:46:07.820Z,55.39
2022-08-28T18:48:36.393Z,55.72
2022-08-28T18:51:09.616Z,56.29
2022-08-28T18:53:36.542Z,55.91
2022-08-28T18:56:04.505Z,56.57
2022-08-28T18:58:31.282Z,56.32
2022-08-28T19:00:59.934Z,56.62
2022-08-28T19:03:29.429Z,57.11
2022-08-28T19:05:56.072Z,56.47
2022-08-28T19:08:26.784Z,57.08
2022-08-28T19:10:54.483Z,57.87
2022-08-28T19:13:21.333Z,57.44
2022-08-28T19:15:50.640Z,57.40
2022-08-28T19:18:18.421Z,57.83
2022-08-28T19:20:45.788Z,57.39
2022-08-28T19:23:17.244Z,57.53
2022-08-28T19:25:44.737Z,57.23
2022-08-28T19:28:11.458Z,57.32
2022-08-28T19:30:38.229Z,57.14
2022-08-28T19:33:05.301Z,57.23
2022-08-28T19:35:32.669Z,57.49
2022-08-28T19:37:59.498Z,57.40
2022-08-28T19:40:26.204Z,57.51
2022-08-28T19:42:52.915Z,57.50
2022-08-28T19:45:20.332Z,57.20
2022-08-28T19:47:47.232Z,57.56
2022-08-28T19:50:15.751Z,58.34
2022-08-28T19:52:43.464Z,58.21
2022-08-28T19:55:21.779Z,58.43
2022-08-28T19:57:48.853Z,58.74
2022-08-28T20:00:19.025Z,58.41
2022-08-28T20:02:46.918Z,57.53
2022-08-28T20:05:16.478Z,58.20
2022-08-28T20:07:44.518Z,57.65
2022-08-28T20:10:13.067Z,57.27
2022-08-28T20:12:47.971Z,58.15
2022-08-28T20:15:17.662Z,58.07
2022-08-28T20:17:49.508Z,57.20
2022-08-28T20:20:19.016Z,58.37
2022-08-28T20:22:45.836Z,57.97
2022-08-28T20:25:12.658Z,58.43
2022-08-28T20:27:41.587Z,57.86
2022-08-28T20:30:10.754Z,58.28
2022-08-28T20:32:40.024Z,58.71
2022-08-28T20:35:10.953Z,56.38
2022-08-28T20:37:45.295Z,55.17
2022-08-28T20:40:18.740Z,54.17
2022-08-28T20:42:46.753Z,55.42
2022-08-28T20:45:15.941Z,56.12
2022-08-28T20:47:43.250Z,56.44
2022-08-28T20:50:10.933Z,56.02
2022-08-28T20:52:38.590Z,57.06
2022-08-28T20:55:07.784Z,57.03
2022-08-28T20:57:35.912Z,56.02
2022-08-28T21:00:05.988Z,58.34
2022-08-28T21:02:32.854Z,58.67
2022-08-28T21:04:59.650Z,57.19
2022-08-28T21:07:27.006Z,55.91
2022-08-28T21:10:05.869Z,55.40
2022-08-28T21:12:38.867Z,56.39
2022-08-28T21:15:12.444Z,56.43
2022-08-28T21:17:40.153Z,55.97
2022-08-28T21:20:11.642Z,56.08
2022-08-28T21:22:39.668Z,58.13
2022-08-28T21:25:09.891Z,57.08
2022-08-28T21:27:37.870Z,55.88
2022-08-28T21:30:08.541Z,59.01
2022-08-28T21:32:35.380Z,59.41
2022-08-28T21:35:04.270Z,57.08
2022-08-28T21:37:33.281Z,55.78
2022-08-28T21:40:05.661Z,55.23
2022-08-28T21:42:32.521Z,57.29
2022-08-28T21:45:00.637Z,58.13
2022-08-28T21:47:41.989Z,57.53
2022-08-28T21:50:09.271Z,58.20
2022-08-28T21:52:36.269Z,58.18
2022-08-28T21:55:08.812Z,59.91
2022-08-28T21:57:35.953Z,58.18
2022-08-28T22:00:05.720Z,56.88
2022-08-28T22:02:32.589Z,56.56
2022-08-28T22:04:59.363Z,59.54
2022-08-28T22:07:28.567Z,60.75
2022-08-28T22:09:55.724Z,60.19
2022-08-28T22:12:22.382Z,59.13
2022-08-28T22:14:49.194Z,61.84
2022-08-28T22:17:15.877Z,61.15
2022-08-28T22:19:42.746Z,62.43
2022-08-28T22:22:13.885Z,63.34
2022-08-28T22:24:40.758Z,63.98
2022-08-28T22:27:07.539Z,63.88
2022-08-28T22:29:34.240Z,63.37
2022-08-28T22:32:01.114Z,62.69
2022-08-28T22:34:27.806Z,64.31
2022-08-28T22:36:54.461Z,63.54
2022-08-28T22:39:24.146Z,62.58
2022-08-28T22:41:50.841Z,64.00
2022-08-28T22:44:17.609Z,64.78
2022-08-28T22:46:44.228Z,63.14
2022-08-28T22:49:10.848Z,63.46
2022-08-28T22:51:37.480Z,64.54
2022-08-28T22:54:04.421Z,65.22
2022-08-28T22:56:31.147Z,64.55
2022-08-28T22:58:57.922Z,64.53
2022-08-28T23:01:26.219Z,65.42
2022-08-28T23:03:53.083Z,66.83
2022-08-28T23:06:20.282Z,66.62
2022-08-28T23:08:47.737Z,66.97
2022-08-28T23:11:14.683Z,66.20
2022-08-28T23:13:41.440Z,67.19
2022-08-28T23:16:09.426Z,66.03
2022-08-28T23:19:04.305Z,66.43
2022-08-28T23:21:26.394Z,65.38
2022-08-28T23:23:53.293Z,65.83
2022-08-28T23:26:19.905Z,66.22
2022-08-28T23:28:47.881Z,67.05
2022-08-28T23:31:14.521Z,66.37
2022-08-28T23:33:41.776Z,67.15
2022-08-28T23:36:09.792Z,66.52
2022-08-28T23:38:42.860Z,65.69
2022-08-28T23:41:11.602Z,66.48
2022-08-28T23:43:40.102Z,65.72
2022-08-28T23:46:06.821Z,64.40
2022-08-28T23:48:35.372Z,65.16
2022-08-28T23:51:02.565Z,64.65
2022-08-28T23:53:29.752Z,65.51
2022-08-28T23:55:59.516Z,66.22
2022-08-28T23:58:28.468Z,66.60
